Gustavo Rojas Pinilla International Airport
SKSP : rendu visible

Aérodrome :











RETROUVEZ-NOUS SUR...

 
LOGIN :

S'inscrire | Disclaimer

   EN    FR    IT 

 









Légende :    VFR   VFR Marginal   IFR   IFR Intensif   IFR Très Intensif
Visi : 
Plafond : 
>= 8 km
>= 3000ft
5 à 8 km
1000 à 3000 ft
1500m à 5 km
500 à 1000 ft
800 à 1500m
200 à 500 ft
< 800m
< 200 ft
Symboles :   Orages  Brouillard  Fortes neiges  Fortes précipitations  Vent > 20 kt






- Altitude de l'aérodrome : 19 ft
- Code IATA : ADZ


SKSP - Gustavo Rojas Pinilla International

DERNIER METAR :
  • 210300Z 05012KT 9999 FEW018 27/23 A2997

METARs EXPIRÉS :
  • 210200Z 05011KT 9999 FEW018 27/23 A2994
  • 210100Z 05013KT 9999 SCT018 28/23 A2992

TAF TAF SKSP
Valide du 21 à 00h jusqu'au 22 à 00h UTC


202230Z 2100/2124 06016KT 9999 FEW017 TX33/2119Z TN27/2111Z



MET'MAP, la Météo Aéronautique d'un coup d'oeil ! - Copyright ORBIFLY Décembre 2007 - Disclaimer

ORBIFLY MET'MAP TEAM :

Programmation & Développement : Alexandra Zaïnal
Sur une idée originale de : Baudouin d'Aumeries
Assistance à la programmation : Marc-Olivier Méhu
Soutien technique & logistique : Manuel Goepfert

Contact : metmap@orbifly.com




SOURCES & CREDITS :

   NOAA       Earth
Advisory